Time;durP1;ratioP1;P1;durP2;ratioP2;P2;SDS_P1;SDS_P2;PMS_P1;PMS_P2;Temp;Humidity;BMP_temperature;BMP_pressure;BME280_temperature;BME280_humidity;BME280_pressure;Samples;Min_cycle;Max_cycle;Signal;HPM_P1;HPM_P2
2024/01/14 00:00:14;;;;;;;8.10;3.87;;;3.30;99.90;;;;;;5013596;28;20455;-65
2024/01/14 00:02:42;;;;;;;6.80;4.13;;;3.40;99.90;;;;;;5013966;28;20596;-64
2024/01/14 00:05:09;;;;;;;9.77;4.57;;;3.30;99.90;;;;;;5014099;28;20451;-65
2024/01/14 00:07:37;;;;;;;8.60;4.57;;;3.30;99.90;;;;;;5014997;28;20505;-63
2024/01/14 00:10:04;;;;;;;5.67;2.60;;;3.40;99.90;;;;;;5014944;28;20483;-63
2024/01/14 00:12:31;;;;;;;5.87;3.13;;;3.40;99.90;;;;;;5014666;28;20625;-63
2024/01/14 00:14:58;;;;;;;8.20;3.90;;;3.30;99.90;;;;;;5015725;28;20447;-65
2024/01/14 00:17:27;;;;;;;8.10;4.40;;;3.40;99.90;;;;;;5000650;28;20438;-65
2024/01/14 00:19:58;;;;;;;5.63;3.63;;;3.40;99.90;;;;;;5004560;28;20533;-66
2024/01/14 00:22:25;;;;;;;6.50;3.33;;;3.40;99.90;;;;;;5012843;28;20463;-65
2024/01/14 00:24:53;;;;;;;5.60;3.73;;;3.40;99.90;;;;;;5011265;28;20785;-64
2024/01/14 00:27:23;;;;;;;7.13;4.00;;;3.80;99.90;;;;;;5011777;28;20474;-65
2024/01/14 00:29:51;;;;;;;10.87;4.43;;;3.70;99.90;;;;;;5012484;28;20443;-64
2024/01/14 00:32:18;;;;;;;9.17;3.90;;;3.70;99.90;;;;;;5014763;28;20491;-63
2024/01/14 00:34:45;;;;;;;5.20;3.20;;;3.60;99.90;;;;;;5015621;28;20442;-62
2024/01/14 00:37:13;;;;;;;7.10;3.20;;;3.60;99.90;;;;;;5016153;28;20477;-65
2024/01/14 00:39:40;;;;;;;8.90;4.13;;;3.60;99.90;;;;;;5016901;28;20465;-63
2024/01/14 00:42:07;;;;;;;6.23;3.60;;;3.60;99.90;;;;;;5016377;28;20451;-63
2024/01/14 00:44:34;;;;;;;7.90;3.73;;;3.60;99.90;;;;;;5016863;28;20505;-63
2024/01/14 00:47:05;;;;;;;6.90;4.47;;;3.60;99.90;;;;;;5016686;28;20491;-63
2024/01/14 00:49:33;;;;;;;5.40;4.20;;;3.60;99.90;;;;;;5017026;28;20462;-65
2024/01/14 00:52:00;;;;;;;9.33;4.77;;;3.60;99.90;;;;;;5015455;28;20478;-63
2024/01/14 00:54:28;;;;;;;7.43;4.13;;;3.60;99.90;;;;;;5015034;28;20459;-65
2024/01/14 00:56:55;;;;;;;7.00;2.40;;;3.50;99.90;;;;;;5015544;28;20439;-63
2024/01/14 00:59:30;;;;;;;5.53;3.30;;;3.60;99.90;;;;;;5016026;28;20471;-64
2024/01/14 01:02:01;;;;;;;8.30;4.20;;;3.60;99.90;;;;;;5016441;28;20418;-63
2024/01/14 01:04:30;;;;;;;4.90;3.13;;;3.60;99.90;;;;;;5018308;28;20428;-63
2024/01/14 01:06:57;;;;;;;7.50;4.10;;;3.50;99.90;;;;;;5018252;28;20486;-63
2024/01/14 01:09:25;;;;;;;6.93;2.53;;;3.60;99.90;;;;;;5018187;28;20454;-62
2024/01/14 01:11:53;;;;;;;4.57;2.57;;;3.50;99.90;;;;;;5018066;28;20437;-62
2024/01/14 01:14:22;;;;;;;3.80;2.43;;;3.50;99.90;;;;;;5017828;28;20432;-63
2024/01/14 01:16:59;;;;;;;4.27;2.80;;;3.50;99.90;;;;;;5017644;28;20443;-64
2024/01/14 01:19:26;;;;;;;3.77;1.90;;;3.50;99.90;;;;;;5018208;28;20509;-60
2024/01/14 01:21:55;;;;;;;3.07;2.40;;;3.50;99.90;;;;;;5018430;28;20426;-64
2024/01/14 01:24:21;;;;;;;8.30;2.20;;;3.40;99.90;;;;;;5018402;28;20451;-63
2024/01/14 01:26:48;;;;;;;6.90;2.67;;;3.40;99.90;;;;;;5018303;28;20424;-65
2024/01/14 01:29:19;;;;;;;3.33;2.30;;;3.30;99.90;;;;;;5018199;28;20461;-64
2024/01/14 01:31:46;;;;;;;14.60;3.40;;;3.30;99.90;;;;;;5017794;28;20447;-64
2024/01/14 01:34:16;;;;;;;2.70;1.87;;;3.20;99.90;;;;;;5017956;28;20434;-63
2024/01/14 01:36:43;;;;;;;2.23;1.60;;;3.20;99.90;;;;;;5018216;28;20427;-55
2024/01/14 01:39:10;;;;;;;2.50;2.10;;;3.20;99.90;;;;;;5017987;28;20523;-64
2024/01/14 01:41:37;;;;;;;3.13;2.20;;;3.20;99.90;;;;;;5018013;28;20430;-62
2024/01/14 01:44:04;;;;;;;3.57;1.90;;;3.20;99.90;;;;;;5018045;28;20444;-63
2024/01/14 01:46:33;;;;;;;5.20;3.30;;;3.20;99.90;;;;;;5017885;28;20448;-63
2024/01/14 01:49:02;;;;;;;2.77;1.70;;;3.20;99.90;;;;;;5018454;28;20506;-62
2024/01/14 01:51:40;;;;;;;3.23;2.00;;;3.10;99.90;;;;;;5011034;28;20429;-62
2024/01/14 01:54:08;;;;;;;2.23;1.60;;;3.10;99.90;;;;;;5021489;28;20495;-64
2024/01/14 01:56:38;;;;;;;4.10;2.40;;;3.10;99.90;;;;;;5021497;28;20430;-64
2024/01/14 01:59:17;;;;;;;3.23;2.00;;;3.10;99.90;;;;;;5021337;28;20446;-60
2024/01/14 02:01:48;;;;;;;6.33;2.10;;;3.10;99.90;;;;;;5021308;28;20434;-63
2024/01/14 02:04:18;;;;;;;1.63;1.47;;;3.00;99.90;;;;;;5021588;28;20415;-62
2024/01/14 02:06:48;;;;;;;5.17;2.30;;;3.00;99.90;;;;;;5020970;28;20438;-62
2024/01/14 02:09:22;;;;;;;4.20;2.13;;;3.00;99.90;;;;;;5021094;28;20439;-64
2024/01/14 02:11:49;;;;;;;2.53;2.07;;;3.10;99.90;;;;;;5021207;28;20429;-61
2024/01/14 02:14:16;;;;;;;4.70;2.10;;;3.10;99.90;;;;;;5021164;28;20432;-61
2024/01/14 02:16:44;;;;;;;4.00;2.20;;;3.10;99.90;;;;;;5021020;28;20446;-63
2024/01/14 02:19:12;;;;;;;5.77;3.33;;;3.00;99.90;;;;;;5020999;28;20477;-63
2024/01/14 02:21:43;;;;;;;3.27;1.80;;;3.10;99.90;;;;;;5019521;28;20441;-60
2024/01/14 02:24:23;;;;;;;8.50;3.37;;;3.10;99.90;;;;;;5019574;28;20415;-64
2024/01/14 02:26:50;;;;;;;5.50;2.37;;;3.20;99.90;;;;;;5018619;28;20436;-64
2024/01/14 02:29:17;;;;;;;3.27;2.17;;;3.10;99.90;;;;;;5018192;28;20451;-64
2024/01/14 02:31:46;;;;;;;2.37;1.30;;;3.10;99.90;;;;;;5019694;28;20457;-64
2024/01/14 02:34:14;;;;;;;5.37;2.20;;;3.10;99.90;;;;;;5020044;28;20425;-64
2024/01/14 02:36:41;;;;;;;18.03;2.90;;;3.10;99.90;;;;;;5019024;28;20458;-66
2024/01/14 02:39:09;;;;;;;5.23;2.00;;;3.10;99.90;;;;;;5017931;28;20463;-62
2024/01/14 02:41:37;;;;;;;2.10;1.43;;;3.10;99.90;;;;;;5018380;28;20465;-62
2024/01/14 02:44:04;;;;;;;12.53;2.80;;;3.10;99.90;;;;;;5017738;28;20439;-64
2024/01/14 02:46:33;;;;;;;4.30;2.20;;;3.10;99.90;;;;;;5018592;28;20449;-62
2024/01/14 02:49:00;;;;;;;3.83;2.17;;;3.10;99.90;;;;;;5018342;28;20497;-65
2024/01/14 02:51:26;;;;;;;3.63;1.90;;;3.10;99.90;;;;;;5017166;28;20445;-64
2024/01/14 02:53:56;;;;;;;7.90;1.87;;;3.10;99.90;;;;;;5017374;28;20467;-64
2024/01/14 02:56:23;;;;;;;3.13;2.30;;;3.00;99.90;;;;;;5015614;28;20459;-65
2024/01/14 02:58:51;;;;;;;1.77;1.10;;;3.00;99.90;;;;;;5015883;28;20514;-65
2024/01/14 03:01:20;;;;;;;11.63;2.10;;;3.10;99.90;;;;;;5015146;28;20442;-64
2024/01/14 03:03:47;;;;;;;5.90;1.60;;;3.10;99.90;;;;;;5006919;28;20473;-64
2024/01/14 03:06:14;;;;;;;4.40;1.57;;;3.10;99.90;;;;;;4998326;28;20475;-66
2024/01/14 03:08:41;;;;;;;3.67;1.87;;;3.10;99.90;;;;;;4996783;28;20956;-65
2024/01/14 03:11:08;;;;;;;4.20;1.70;;;3.00;99.90;;;;;;5000983;28;20923;-65
2024/01/14 03:13:34;;;;;;;2.20;2.00;;;3.10;99.90;;;;;;5005286;28;20532;-64
2024/01/14 03:16:10;;;;;;;3.73;1.90;;;3.10;99.90;;;;;;5006084;28;20496;-64
2024/01/14 03:18:37;;;;;;;1.77;1.67;;;3.00;99.90;;;;;;5014027;28;20476;-64
2024/01/14 03:21:04;;;;;;;4.30;1.83;;;3.00;99.90;;;;;;5013956;28;20519;-64
2024/01/14 03:23:31;;;;;;;3.83;1.63;;;3.00;99.90;;;;;;5014112;28;20474;-64
2024/01/14 03:26:00;;;;;;;9.50;2.20;;;3.00;99.90;;;;;;5015139;28;20565;-65
2024/01/14 03:28:27;;;;;;;1.87;1.07;;;2.90;99.90;;;;;;5015478;28;20470;-62
2024/01/14 03:30:54;;;;;;;4.67;1.53;;;2.90;99.90;;;;;;5014767;28;20443;-64
2024/01/14 03:33:22;;;;;;;15.13;1.63;;;2.90;99.90;;;;;;5014075;28;20467;-65
2024/01/14 03:35:49;;;;;;;6.60;2.20;;;2.90;99.90;;;;;;5014408;28;20444;-62
2024/01/14 03:38:16;;;;;;;5.70;1.80;;;2.90;99.90;;;;;;5011849;28;20490;-62
2024/01/14 03:40:43;;;;;;;2.20;1.50;;;2.90;99.90;;;;;;4994826;28;20496;-64
2024/01/14 03:43:10;;;;;;;2.50;1.57;;;2.90;99.90;;;;;;4995698;28;20474;-64
2024/01/14 03:45:37;;;;;;;10.63;2.60;;;2.90;99.90;;;;;;4995735;28;20531;-64
2024/01/14 03:48:04;;;;;;;2.00;1.67;;;2.90;99.90;;;;;;4995924;28;20518;-63
2024/01/14 03:50:33;;;;;;;1.20;0.90;;;2.90;99.90;;;;;;4996011;28;20490;-64
2024/01/14 03:52:59;;;;;;;8.03;1.27;;;2.90;99.90;;;;;;4996742;28;20471;-64
2024/01/14 03:55:26;;;;;;;2.17;1.33;;;2.80;99.90;;;;;;4999240;28;20558;-64
2024/01/14 03:57:54;;;;;;;3.90;1.20;;;2.80;99.90;;;;;;5006143;28;20480;-64
2024/01/14 04:00:21;;;;;;;4.30;1.43;;;2.80;99.90;;;;;;5005483;28;20439;-64
2024/01/14 04:02:48;;;;;;;5.87;1.83;;;2.80;99.90;;;;;;5005336;28;20458;-64
2024/01/14 04:05:15;;;;;;;5.93;1.33;;;2.80;99.90;;;;;;5005990;28;20498;-65
2024/01/14 04:07:43;;;;;;;6.00;1.10;;;2.70;99.90;;;;;;5006870;28;20569;-63
2024/01/14 04:10:12;;;;;;;3.37;1.20;;;2.70;99.90;;;;;;5005728;28;20442;-63
2024/01/14 04:12:40;;;;;;;9.53;1.20;;;2.70;99.90;;;;;;5004667;28;20455;-62
2024/01/14 04:15:08;;;;;;;3.47;1.10;;;2.70;99.90;;;;;;5005138;28;20523;-64
2024/01/14 04:17:35;;;;;;;2.43;0.90;;;2.80;99.90;;;;;;4997652;28;20518;-64
2024/01/14 04:20:02;;;;;;;5.93;2.10;;;2.80;99.90;;;;;;5002655;28;20467;-63
2024/01/14 04:22:29;;;;;;;6.17;1.60;;;2.80;99.90;;;;;;4999786;28;20447;-62
2024/01/14 04:24:57;;;;;;;11.70;2.00;;;2.80;99.90;;;;;;5004023;28;20439;-64
2024/01/14 04:27:24;;;;;;;6.40;1.27;;;2.90;99.90;;;;;;5004447;28;20929;-63
2024/01/14 04:29:51;;;;;;;6.13;1.20;;;2.90;99.90;;;;;;5003099;28;21137;-65
2024/01/14 04:32:18;;;;;;;3.90;1.73;;;2.90;99.90;;;;;;5004684;28;20965;-65
2024/01/14 04:34:45;;;;;;;5.40;1.30;;;2.90;99.90;;;;;;5003197;28;20483;-64
2024/01/14 04:37:12;;;;;;;4.93;1.67;;;3.00;99.90;;;;;;5003684;28;20490;-65
2024/01/14 04:39:38;;;;;;;3.60;1.13;;;3.00;99.90;;;;;;4998197;28;20464;-63
2024/01/14 04:42:07;;;;;;;2.73;1.27;;;3.00;99.90;;;;;;4997630;28;20557;-64
2024/01/14 04:44:35;;;;;;;12.33;2.60;;;3.10;99.90;;;;;;4995782;28;20620;-64
2024/01/14 04:47:02;;;;;;;5.60;1.63;;;3.10;99.90;;;;;;4994908;28;20499;-64
2024/01/14 04:49:29;;;;;;;12.37;2.80;;;3.10;99.90;;;;;;4994677;28;20483;-63
2024/01/14 04:51:56;;;;;;;4.10;1.13;;;3.20;99.90;;;;;;4994848;28;20551;-64
2024/01/14 04:54:22;;;;;;;5.90;1.33;;;3.20;99.90;;;;;;4995242;28;20477;-64
2024/01/14 04:56:50;;;;;;;3.03;2.03;;;3.20;99.90;;;;;;4994962;28;20514;-64
2024/01/14 04:59:21;;;;;;;3.93;1.83;;;3.10;99.90;;;;;;4995081;28;20475;-63
2024/01/14 05:01:48;;;;;;;8.03;1.03;;;3.20;99.90;;;;;;4994757;28;20487;-64
2024/01/14 05:04:15;;;;;;;4.03;1.10;;;3.20;99.90;;;;;;4994857;28;20985;-64
2024/01/14 05:06:42;;;;;;;4.13;1.37;;;3.20;99.90;;;;;;4995921;28;20450;-64
2024/01/14 05:09:09;;;;;;;7.97;2.23;;;3.20;99.90;;;;;;4996245;28;20570;-63
2024/01/14 05:11:37;;;;;;;4.27;1.40;;;3.20;99.90;;;;;;4995479;28;20490;-64
2024/01/14 05:14:04;;;;;;;7.00;1.33;;;3.20;99.90;;;;;;4994953;28;20543;-64
2024/01/14 05:16:32;;;;;;;13.20;1.63;;;3.20;99.90;;;;;;4995133;28;20494;-65
2024/01/14 05:18:59;;;;;;;8.37;1.63;;;3.30;99.90;;;;;;4995084;28;20999;-64
2024/01/14 05:21:26;;;;;;;4.53;1.70;;;3.30;99.90;;;;;;4994694;28;20916;-64
2024/01/14 05:23:52;;;;;;;1.97;1.20;;;3.30;99.90;;;;;;4997123;28;20458;-64
2024/01/14 05:26:19;;;;;;;7.60;1.70;;;3.30;99.90;;;;;;4998605;28;21013;-63
2024/01/14 05:28:46;;;;;;;2.27;1.30;;;3.20;99.90;;;;;;4996894;28;20484;-63
2024/01/14 05:31:13;;;;;;;5.50;1.80;;;3.20;99.90;;;;;;4998427;28;20548;-64
2024/01/14 05:33:41;;;;;;;9.30;1.60;;;3.20;99.90;;;;;;4998399;28;20513;-64
2024/01/14 05:36:08;;;;;;;4.80;1.40;;;3.20;99.90;;;;;;4998247;28;20913;-64
2024/01/14 05:38:35;;;;;;;4.23;1.57;;;3.20;99.90;;;;;;4998426;28;20507;-64
2024/01/14 05:41:02;;;;;;;2.30;1.20;;;3.20;99.90;;;;;;4998477;28;20552;-65
2024/01/14 05:43:29;;;;;;;7.13;1.80;;;3.20;99.90;;;;;;4998419;28;20501;-63
2024/01/14 05:45:56;;;;;;;9.77;1.53;;;3.20;99.90;;;;;;4998436;28;20465;-65
2024/01/14 05:48:23;;;;;;;9.53;1.17;;;3.30;99.90;;;;;;4998596;28;20572;-64
2024/01/14 05:50:51;;;;;;;7.80;1.90;;;3.30;99.90;;;;;;4997878;28;20497;-65
2024/01/14 05:53:19;;;;;;;11.97;2.83;;;3.30;99.90;;;;;;4997929;28;20538;-65
2024/01/14 05:55:45;;;;;;;5.00;1.53;;;3.30;99.90;;;;;;4999044;28;20476;-62
2024/01/14 05:58:12;;;;;;;3.50;1.63;;;3.30;99.90;;;;;;5015335;28;20451;-63
2024/01/14 06:00:39;;;;;;;5.10;1.80;;;3.30;99.90;;;;;;5015052;28;20484;-64
2024/01/14 06:03:06;;;;;;;8.17;1.07;;;3.30;99.90;;;;;;5004849;28;20476;-62
2024/01/14 06:05:35;;;;;;;4.13;1.20;;;3.20;99.90;;;;;;5006104;28;20451;-64
2024/01/14 06:08:04;;;;;;;3.53;1.37;;;3.20;99.90;;;;;;5001069;28;20498;-63
2024/01/14 06:10:31;;;;;;;2.80;1.00;;;3.20;99.90;;;;;;5000799;28;20454;-63
2024/01/14 06:12:58;;;;;;;4.50;1.73;;;3.20;99.90;;;;;;4998914;28;20508;-64
2024/01/14 06:15:25;;;;;;;8.30;2.07;;;3.20;99.90;;;;;;4997653;28;20447;-63
2024/01/14 06:17:51;;;;;;;2.97;1.27;;;3.20;99.90;;;;;;4997322;28;20549;-63
2024/01/14 06:20:18;;;;;;;2.80;1.33;;;3.10;99.90;;;;;;4997805;28;20448;-64
2024/01/14 06:22:45;;;;;;;14.13;1.10;;;3.10;99.90;;;;;;4997460;28;20647;-65
2024/01/14 06:25:14;;;;;;;5.70;1.47;;;3.10;99.90;;;;;;4997500;28;20543;-63
2024/01/14 06:27:40;;;;;;;7.10;1.23;;;3.00;99.90;;;;;;4996772;28;20568;-61
2024/01/14 06:30:08;;;;;;;1.77;1.17;;;3.00;99.90;;;;;;4997268;28;20513;-62
2024/01/14 06:32:35;;;;;;;4.30;2.17;;;2.90;99.90;;;;;;4997137;28;20967;-63
2024/01/14 06:35:02;;;;;;;3.97;1.33;;;3.00;99.90;;;;;;4996326;28;20452;-64
2024/01/14 06:37:29;;;;;;;2.50;1.30;;;3.00;99.90;;;;;;4997214;28;20794;-64
2024/01/14 06:39:56;;;;;;;2.63;1.10;;;3.00;99.90;;;;;;4996909;28;20510;-64
2024/01/14 06:42:24;;;;;;;3.37;1.47;;;3.00;99.90;;;;;;5013701;28;20456;-63
2024/01/14 06:44:58;;;;;;;1.87;1.07;;;3.00;99.90;;;;;;5016417;28;20458;-64
2024/01/14 06:47:24;;;;;;;3.10;1.10;;;3.00;99.90;;;;;;5016100;28;20424;-64
2024/01/14 06:49:54;;;;;;;4.50;1.20;;;3.00;99.90;;;;;;5015836;28;20480;-62
2024/01/14 06:52:22;;;;;;;5.00;1.83;;;3.10;99.90;;;;;;5015657;28;20461;-63
2024/01/14 06:54:50;;;;;;;4.13;1.00;;;3.10;99.90;;;;;;5015896;28;20535;-64
2024/01/14 06:57:17;;;;;;;2.00;1.10;;;3.10;99.90;;;;;;5015087;28;20472;-63
2024/01/14 06:59:45;;;;;;;4.53;1.13;;;3.10;99.90;;;;;;5004573;28;20451;-63
2024/01/14 07:02:12;;;;;;;1.03;0.90;;;3.10;99.90;;;;;;4998945;28;20525;-64
2024/01/14 07:04:39;;;;;;;3.57;0.80;;;3.10;99.90;;;;;;4996586;28;21093;-64
2024/01/14 07:07:07;;;;;;;3.30;1.57;;;3.00;99.90;;;;;;4996261;28;20494;-64
2024/01/14 07:09:34;;;;;;;8.93;1.47;;;3.00;99.90;;;;;;4996346;28;20545;-64
2024/01/14 07:12:01;;;;;;;6.30;1.17;;;3.00;99.90;;;;;;4996719;28;20789;-63
2024/01/14 07:14:29;;;;;;;8.43;1.80;;;3.00;99.90;;;;;;4996453;28;20528;-64
2024/01/14 07:16:57;;;;;;;4.70;1.10;;;3.00;99.90;;;;;;4996541;28;20449;-64
2024/01/14 07:19:24;;;;;;;3.30;1.60;;;3.00;99.90;;;;;;4996687;28;20557;-63
2024/01/14 07:21:51;;;;;;;4.60;1.40;;;3.10;99.90;;;;;;4996480;28;20451;-64
2024/01/14 07:24:18;;;;;;;8.30;1.57;;;3.00;99.90;;;;;;4996207;28;20498;-64
2024/01/14 07:26:45;;;;;;;1.83;1.27;;;3.00;99.90;;;;;;4996771;28;20514;-65
2024/01/14 07:29:11;;;;;;;5.10;1.10;;;3.00;99.90;;;;;;4996182;28;20491;-63
2024/01/14 07:31:39;;;;;;;3.37;1.00;;;3.00;99.90;;;;;;4996037;28;20556;-61
2024/01/14 07:34:08;;;;;;;3.73;1.23;;;3.00;99.90;;;;;;4996633;28;20450;-64
2024/01/14 07:36:35;;;;;;;13.63;1.80;;;3.00;99.90;;;;;;4996266;28;20592;-63
2024/01/14 07:39:03;;;;;;;5.63;1.23;;;3.00;99.90;;;;;;4996243;28;20474;-62
2024/01/14 07:41:30;;;;;;;6.17;1.53;;;3.10;99.90;;;;;;4996194;28;20463;-62
2024/01/14 07:43:57;;;;;;;6.70;1.33;;;3.10;99.90;;;;;;4995959;28;20502;-62
2024/01/14 07:46:23;;;;;;;3.73;1.17;;;3.00;99.90;;;;;;4996093;28;20490;-64
2024/01/14 07:48:51;;;;;;;3.93;1.57;;;3.00;99.90;;;;;;4996047;28;20491;-64
2024/01/14 07:51:19;;;;;;;9.30;1.73;;;3.10;99.90;;;;;;4995273;28;20463;-63
2024/01/14 07:53:46;;;;;;;3.00;1.33;;;3.10;99.90;;;;;;4995267;28;20518;-63
2024/01/14 07:56:13;;;;;;;4.03;1.20;;;3.10;99.90;;;;;;4995758;28;20494;-64
2024/01/14 07:58:39;;;;;;;1.90;1.00;;;3.10;99.90;;;;;;4995634;28;20961;-63
2024/01/14 08:01:07;;;;;;;3.40;1.40;;;3.10;99.90;;;;;;4995743;28;20466;-64
2024/01/14 08:03:35;;;;;;;3.20;1.40;;;3.10;99.90;;;;;;4995648;28;20483;-64
2024/01/14 08:06:02;;;;;;;3.80;1.83;;;3.10;99.90;;;;;;4995514;28;20478;-64
2024/01/14 08:08:31;;;;;;;3.87;1.47;;;3.10;99.90;;;;;;4995679;28;20493;-63
2024/01/14 08:10:58;;;;;;;4.60;1.40;;;3.10;99.90;;;;;;4995372;28;20486;-63
2024/01/14 08:13:25;;;;;;;9.13;2.07;;;3.20;99.90;;;;;;4995289;28;20483;-64
2024/01/14 08:15:52;;;;;;;2.50;1.10;;;3.20;99.90;;;;;;4994974;28;20471;-64
2024/01/14 08:18:19;;;;;;;8.90;1.60;;;3.20;99.90;;;;;;4995504;28;21040;-65
2024/01/14 08:20:47;;;;;;;4.10;1.50;;;3.20;99.90;;;;;;4995350;28;20906;-63
2024/01/14 08:23:14;;;;;;;3.37;0.90;;;3.20;99.90;;;;;;4995225;28;20461;-63
2024/01/14 08:25:44;;;;;;;4.10;1.30;;;3.20;99.90;;;;;;4995218;28;20486;-63
2024/01/14 08:28:11;;;;;;;4.50;1.23;;;3.20;99.90;;;;;;4994990;28;20460;-63
2024/01/14 08:30:38;;;;;;;6.57;1.30;;;3.20;99.90;;;;;;4989693;28;20491;-64
2024/01/14 08:33:05;;;;;;;1.30;0.70;;;3.20;99.90;;;;;;4994860;28;20539;-64
2024/01/14 08:35:32;;;;;;;1.83;1.47;;;3.20;99.90;;;;;;4995361;28;20545;-62
2024/01/14 08:37:59;;;;;;;6.30;1.53;;;3.30;99.90;;;;;;4995633;28;20476;-61
2024/01/14 08:40:26;;;;;;;1.30;1.07;;;3.30;99.90;;;;;;4994628;28;20915;-63
2024/01/14 08:42:54;;;;;;;1.73;1.10;;;3.30;99.90;;;;;;4995064;28;20541;-64
2024/01/14 08:45:21;;;;;;;4.07;1.00;;;3.30;99.90;;;;;;4994669;28;20482;-62
2024/01/14 08:47:48;;;;;;;5.23;1.33;;;3.40;99.90;;;;;;4994708;28;20848;-64
2024/01/14 08:50:15;;;;;;;4.50;1.47;;;3.40;99.90;;;;;;4994311;28;20555;-63
2024/01/14 08:52:42;;;;;;;8.23;1.20;;;3.40;99.90;;;;;;4994663;28;20558;-63
2024/01/14 08:55:09;;;;;;;2.30;1.60;;;3.40;99.90;;;;;;4994686;28;20529;-64
2024/01/14 08:57:38;;;;;;;3.07;1.43;;;3.40;99.90;;;;;;4995159;28;20540;-61
2024/01/14 09:00:08;;;;;;;2.07;1.13;;;3.50;99.90;;;;;;4999266;28;20466;-64
2024/01/14 09:02:35;;;;;;;8.30;2.30;;;3.50;99.90;;;;;;4998715;28;20446;-64
2024/01/14 09:05:02;;;;;;;4.63;1.30;;;3.50;99.90;;;;;;4998191;28;20538;-63
2024/01/14 09:07:30;;;;;;;2.90;1.00;;;3.50;99.90;;;;;;4994501;28;21011;-64
2024/01/14 09:09:57;;;;;;;2.03;1.20;;;3.40;99.90;;;;;;4999053;28;20467;-63
2024/01/14 09:12:24;;;;;;;2.57;1.10;;;3.50;99.90;;;;;;4998933;28;20531;-63
2024/01/14 09:14:51;;;;;;;7.40;1.20;;;3.50;99.90;;;;;;4998724;28;20554;-55
2024/01/14 09:17:19;;;;;;;2.37;0.90;;;3.50;99.90;;;;;;4998620;28;20531;-55
2024/01/14 09:19:46;;;;;;;3.87;1.30;;;3.60;99.90;;;;;;4998433;28;20442;-55
2024/01/14 09:22:13;;;;;;;4.17;1.10;;;3.60;99.90;;;;;;4998297;28;20501;-56
2024/01/14 09:24:45;;;;;;;10.53;1.73;;;3.70;99.90;;;;;;4998696;28;20510;-50
2024/01/14 09:27:12;;;;;;;6.47;1.00;;;3.60;99.90;;;;;;4998504;28;20477;-58
2024/01/14 09:29:39;;;;;;;6.93;2.00;;;3.60;99.90;;;;;;4994088;28;21179;-57
2024/01/14 09:32:06;;;;;;;3.67;1.03;;;3.60;99.90;;;;;;4990366;28;20447;-55
2024/01/14 09:34:35;;;;;;;7.30;2.07;;;3.70;99.90;;;;;;4993425;28;20456;-65
2024/01/14 09:37:02;;;;;;;3.63;1.00;;;3.70;99.90;;;;;;4998467;28;20469;-63
2024/01/14 09:39:28;;;;;;;4.30;1.30;;;3.70;99.90;;;;;;4995849;28;20486;-64
2024/01/14 09:42:04;;;;;;;2.90;1.10;;;3.70;99.90;;;;;;4998000;28;20486;-64
2024/01/14 09:44:31;;;;;;;1.50;1.20;;;3.60;99.90;;;;;;4995448;28;20431;-65
2024/01/14 09:47:00;;;;;;;6.73;1.53;;;3.60;99.90;;;;;;4996774;28;20814;-64
2024/01/14 09:49:27;;;;;;;7.03;1.73;;;3.60;99.90;;;;;;4997588;28;20479;-64
2024/01/14 09:51:56;;;;;;;8.60;2.00;;;3.70;99.90;;;;;;4994320;28;20486;-65
2024/01/14 09:54:23;;;;;;;2.13;1.00;;;3.70;99.90;;;;;;4996985;28;20530;-65
2024/01/14 09:56:54;;;;;;;4.30;1.63;;;3.80;99.90;;;;;;4997355;28;20462;-65
2024/01/14 09:59:22;;;;;;;4.73;1.13;;;3.80;99.90;;;;;;4998018;28;20463;-65
2024/01/14 10:01:52;;;;;;;4.07;0.90;;;3.70;99.90;;;;;;4997659;28;20489;-64
2024/01/14 10:04:20;;;;;;;1.57;1.43;;;3.80;99.90;;;;;;4998740;28;20476;-65
2024/01/14 10:06:48;;;;;;;4.53;1.33;;;3.80;99.90;;;;;;4996903;28;20439;-64
2024/01/14 10:09:17;;;;;;;6.13;1.80;;;3.80;99.90;;;;;;4997287;28;20557;-62
2024/01/14 10:11:46;;;;;;;3.40;1.60;;;3.80;99.90;;;;;;4997651;28;20448;-64
2024/01/14 10:14:13;;;;;;;7.17;2.53;;;3.80;99.90;;;;;;4994094;28;20463;-63
2024/01/14 10:16:40;;;;;;;14.70;3.10;;;3.80;99.90;;;;;;4998965;28;20439;-64
2024/01/14 10:19:07;;;;;;;2.50;1.40;;;3.80;99.90;;;;;;4998055;28;20488;-65
2024/01/14 10:21:34;;;;;;;4.93;1.87;;;3.80;99.90;;;;;;4995634;28;20427;-64
2024/01/14 10:24:01;;;;;;;3.17;0.90;;;3.90;99.90;;;;;;4996261;28;20498;-64
2024/01/14 10:26:29;;;;;;;9.37;1.50;;;3.80;99.90;;;;;;4996645;28;20461;-65
2024/01/14 10:29:04;;;;;;;1.30;0.93;;;3.80;99.90;;;;;;4997827;28;20551;-63
2024/01/14 10:31:32;;;;;;;1.60;0.90;;;3.80;99.90;;;;;;4997848;28;20502;-65
2024/01/14 10:34:00;;;;;;;4.23;1.10;;;3.80;99.90;;;;;;4997483;28;20447;-64
2024/01/14 10:36:28;;;;;;;2.27;1.07;;;3.80;99.90;;;;;;4997080;28;20460;-63
2024/01/14 10:38:57;;;;;;;10.13;1.90;;;3.80;99.90;;;;;;4997351;28;20454;-64
2024/01/14 10:41:25;;;;;;;3.53;1.13;;;3.80;99.90;;;;;;4997136;28;20458;-64
2024/01/14 10:43:54;;;;;;;3.33;1.60;;;3.90;99.90;;;;;;4997179;28;20454;-63
2024/01/14 10:46:24;;;;;;;5.27;1.50;;;3.90;99.90;;;;;;4997108;28;20976;-63
2024/01/14 10:48:59;;;;;;;4.47;0.90;;;3.80;99.90;;;;;;4997260;28;20449;-65
2024/01/14 10:51:31;;;;;;;10.43;2.73;;;3.90;99.90;;;;;;4996772;28;20522;-64
2024/01/14 10:54:19;;;;;;;2.70;1.73;;;3.80;99.90;;;;;;4996381;28;20473;-63
2024/01/14 10:56:52;;;;;;;3.43;0.90;;;3.80;99.90;;;;;;4993587;28;20530;-66
2024/01/14 10:59:23;;;;;;;2.97;1.07;;;3.80;99.90;;;;;;4995380;28;20436;-64
2024/01/14 11:01:53;;;;;;;3.30;1.43;;;3.90;99.90;;;;;;4996081;28;20871;-63
2024/01/14 11:04:22;;;;;;;2.40;1.03;;;3.90;99.90;;;;;;4994107;28;20483;-63
2024/01/14 11:06:55;;;;;;;1.73;0.90;;;3.90;99.90;;;;;;4996165;28;20500;-65
2024/01/14 11:09:22;;;;;;;3.60;2.03;;;4.00;99.90;;;;;;4996589;28;20849;-65
2024/01/14 11:11:53;;;;;;;3.87;1.40;;;4.00;99.90;;;;;;4996359;28;20550;-65
2024/01/14 11:14:28;;;;;;;2.90;1.50;;;4.00;99.90;;;;;;4996276;28;20850;-66
2024/01/14 11:17:00;;;;;;;10.80;1.50;;;4.00;99.90;;;;;;4996380;28;20539;-65
2024/01/14 11:19:32;;;;;;;7.77;1.50;;;4.00;99.90;;;;;;4996058;28;20507;-64
2024/01/14 11:22:17;;;;;;;1.73;1.00;;;4.00;99.90;;;;;;4995433;28;20476;-65
2024/01/14 11:24:44;;;;;;;2.27;1.20;;;4.00;99.90;;;;;;4995926;28;20439;-64
2024/01/14 11:27:11;;;;;;;14.87;4.83;;;4.10;99.90;;;;;;4991213;28;20472;-63
2024/01/14 11:29:40;;;;;;;38.20;16.67;;;4.50;99.90;;;;;;4996084;28;20499;-65
2024/01/14 11:32:09;;;;;;;4.83;2.10;;;5.50;99.90;;;;;;4995874;28;20471;-64
2024/01/14 11:34:57;;;;;;;3.33;2.23;;;6.10;99.90;;;;;;4995555;28;20461;-65
2024/01/14 11:37:44;;;;;;;7.23;2.07;;;5.90;99.90;;;;;;4996139;28;20519;-65
2024/01/14 11:40:25;;;;;;;13.80;1.60;;;5.40;99.90;;;;;;4994661;28;20530;-65
2024/01/14 11:42:57;;;;;;;3.27;1.17;;;5.20;99.90;;;;;;4996019;28;20459;-65
2024/01/14 11:45:41;;;;;;;6.60;2.23;;;5.00;99.90;;;;;;4997264;28;20484;-64
2024/01/14 11:48:11;;;;;;;3.97;1.57;;;4.70;99.90;;;;;;4999148;28;20449;-63
2024/01/14 11:50:39;;;;;;;3.87;1.73;;;4.60;99.90;;;;;;4996378;28;20519;-63
2024/01/14 11:53:10;;;;;;;4.53;1.90;;;4.50;99.90;;;;;;5006580;28;20470;-66
2024/01/14 11:55:37;;;;;;;5.30;1.13;;;4.40;99.90;;;;;;5002615;28;20461;-65
2024/01/14 11:58:13;;;;;;;6.63;1.40;;;4.50;99.90;;;;;;5006957;28;20478;-63
2024/01/14 12:00:42;;;;;;;3.33;1.07;;;4.40;99.90;;;;;;5006733;28;20471;-63
2024/01/14 12:03:10;;;;;;;1.67;0.90;;;4.50;99.90;;;;;;5005190;28;20457;-64
2024/01/14 12:05:38;;;;;;;1.47;0.97;;;4.50;99.90;;;;;;5006774;28;20457;-63
2024/01/14 12:08:05;;;;;;;1.40;0.97;;;4.50;99.90;;;;;;5004864;28;20480;-63
2024/01/14 12:10:35;;;;;;;2.07;0.70;;;4.60;99.90;;;;;;5007742;28;20894;-63
2024/01/14 12:13:04;;;;;;;4.40;1.13;;;4.50;99.90;;;;;;5006567;28;20510;-66
2024/01/14 12:15:31;;;;;;;1.73;1.20;;;4.40;99.90;;;;;;4996530;28;20477;-64
2024/01/14 12:18:00;;;;;;;6.60;1.53;;;4.40;99.90;;;;;;4981258;28;20477;-63
2024/01/14 12:20:28;;;;;;;6.50;1.93;;;4.40;99.90;;;;;;5008023;28;20753;-64
2024/01/14 12:22:57;;;;;;;9.27;1.70;;;4.40;99.90;;;;;;5010043;28;20473;-63
2024/01/14 12:25:24;;;;;;;1.87;1.33;;;4.40;99.90;;;;;;5008901;28;20790;-63
2024/01/14 12:27:51;;;;;;;4.73;2.20;;;4.30;99.90;;;;;;5000920;28;20922;-64
2024/01/14 12:30:30;;;;;;;3.90;2.00;;;4.30;99.90;;;;;;4999192;28;20555;-65
2024/01/14 12:32:59;;;;;;;6.00;1.47;;;4.30;99.90;;;;;;5003364;28;20470;-64
2024/01/14 12:35:33;;;;;;;4.40;1.40;;;4.40;99.90;;;;;;4999835;28;20482;-64
2024/01/14 12:38:04;;;;;;;2.33;1.33;;;4.40;99.90;;;;;;4988501;28;20482;-63
2024/01/14 12:40:32;;;;;;;3.77;1.73;;;4.30;99.90;;;;;;5000940;28;20519;-62
2024/01/14 12:43:00;;;;;;;4.13;1.23;;;4.30;99.90;;;;;;5000497;28;20855;-64
2024/01/14 12:45:27;;;;;;;5.53;1.30;;;4.30;99.90;;;;;;4998262;28;20490;-63
2024/01/14 12:47:59;;;;;;;1.27;0.80;;;4.30;99.90;;;;;;5000020;28;20464;-65
2024/01/14 12:50:28;;;;;;;4.13;1.20;;;4.30;99.90;;;;;;4999120;28;20520;-64
2024/01/14 12:53:00;;;;;;;4.70;2.00;;;4.30;99.90;;;;;;4999430;28;20501;-64
2024/01/14 12:55:30;;;;;;;4.63;1.20;;;4.20;99.90;;;;;;4998576;28;20444;-63
2024/01/14 12:58:02;;;;;;;6.10;1.00;;;4.20;99.90;;;;;;4993923;28;20465;-64
2024/01/14 13:00:29;;;;;;;2.10;1.33;;;4.10;99.90;;;;;;5000120;28;20840;-64